createdAt,value
2019-05-07T00:00:00.037Z,100308.28
2019-05-07T00:02:17.692Z,100312.94
2019-05-07T00:04:25.140Z,100310.17
2019-05-07T00:06:32.658Z,100311.48
2019-05-07T00:08:39.990Z,100305.30
2019-05-07T00:10:47.316Z,100309.66
2019-05-07T00:12:55.029Z,100304.87
2019-05-07T00:15:04.561Z,100300.03
2019-05-07T00:17:13.097Z,100293.52
2019-05-07T00:19:20.493Z,100295.79
2019-05-07T00:21:27.833Z,100307.78
2019-05-07T00:23:35.195Z,100305.74
2019-05-07T00:25:42.406Z,100310.64
2019-05-07T00:27:52.171Z,100310.79
2019-05-07T00:29:58.842Z,100311.52
2019-05-07T00:32:06.138Z,100310.31
2019-05-07T00:34:14.644Z,100309.34
2019-05-07T00:36:47.003Z,100308.43
2019-05-07T00:39:00.209Z,100303.83
2019-05-07T00:41:24.385Z,100301.33
2019-05-07T00:43:34.915Z,100296.14
2019-05-07T00:45:56.830Z,100298.63
2019-05-07T00:48:03.523Z,100301.99
2019-05-07T00:50:16.584Z,100300.94
2019-05-07T00:52:23.923Z,100300.29
2019-05-07T00:54:32.507Z,100301.05
2019-05-07T00:56:39.913Z,100302.27
2019-05-07T00:58:47.317Z,100313.91
2019-05-07T01:00:54.626Z,100298.42
2019-05-07T01:03:03.038Z,100307.44
2019-05-07T01:05:12.289Z,100299.32
2019-05-07T01:07:19.618Z,100304.30
2019-05-07T01:09:26.930Z,100305.33
2019-05-07T01:11:34.605Z,100296.92
2019-05-07T01:13:43.201Z,100309.45
2019-05-07T01:15:52.983Z,100312.82
2019-05-07T01:17:59.519Z,100314.98
2019-05-07T01:20:07.144Z,100314.69
2019-05-07T01:22:14.494Z,100318.45
2019-05-07T01:24:23.306Z,100317.27
2019-05-07T01:26:32.950Z,100321.34
2019-05-07T01:28:57.653Z,100320.69
2019-05-07T01:31:05.069Z,100324.55
2019-05-07T01:33:26.816Z,100321.67
2019-05-07T01:35:52.882Z,100324.09
2019-05-07T01:38:00.268Z,100329.97
2019-05-07T01:40:07.645Z,100324.03
2019-05-07T01:42:14.947Z,100325.09
2019-05-07T01:44:22.324Z,100332.39
2019-05-07T01:46:29.465Z,100338.43
2019-05-07T01:48:36.791Z,100340.72
2019-05-07T01:50:44.120Z,100332.82
2019-05-07T01:52:52.236Z,100343.48
2019-05-07T01:54:59.699Z,100339.52
2019-05-07T01:57:07.116Z,100344.53
2019-05-07T01:59:14.425Z,100339.45
2019-05-07T02:01:22.185Z,100346.66
2019-05-07T02:03:42.022Z,100356.17
2019-05-07T02:05:54.624Z,100351.20
2019-05-07T02:08:04.339Z,100339.88
2019-05-07T02:10:33.505Z,100341.38
2019-05-07T02:12:42.548Z,100337.83
2019-05-07T02:14:49.961Z,100345.69
2019-05-07T02:16:57.304Z,100344.29
2019-05-07T02:19:04.963Z,100341.25
2019-05-07T02:21:13.220Z,100351.06
2019-05-07T02:23:22.183Z,100355.20
2019-05-07T02:25:29.579Z,100343.90
2019-05-07T02:27:36.853Z,100351.97
2019-05-07T02:29:44.358Z,100357.06
2019-05-07T02:31:53.113Z,100356.09
2019-05-07T02:34:02.819Z,100344.78
2019-05-07T02:36:09.700Z,100350.63
2019-05-07T02:38:33.662Z,100347.98
2019-05-07T02:40:53.374Z,100340.96
2019-05-07T02:43:02.683Z,100354.25
2019-05-07T02:45:26.769Z,100352.64
2019-05-07T02:47:34.948Z,100349.87
2019-05-07T02:49:49.258Z,100359.45
2019-05-07T02:52:04.815Z,100346.25
2019-05-07T02:54:26.964Z,100356.78
2019-05-07T02:56:34.126Z,100359.91
2019-05-07T02:58:43.388Z,100362.91
2019-05-07T03:00:52.977Z,100374.77
2019-05-07T03:02:59.383Z,100377.95
2019-05-07T03:05:07.132Z,100371.09
2019-05-07T03:07:14.503Z,100368.64
2019-05-07T03:09:22.745Z,100382.19
2019-05-07T03:11:33.650Z,100380.98
2019-05-07T03:13:39.603Z,100392.17
2019-05-07T03:15:47.121Z,100382.42
2019-05-07T03:17:54.429Z,100384.62
2019-05-07T03:20:04.106Z,100393.73
2019-05-07T03:22:14.019Z,100387.62
2019-05-07T03:24:39.131Z,100388.67
2019-05-07T03:26:47.134Z,100378.42
2019-05-07T03:28:56.735Z,100385.00
2019-05-07T03:31:16.586Z,100392.73
2019-05-07T03:33:47.155Z,100392.72
2019-05-07T03:35:56.250Z,100401.97
2019-05-07T03:38:03.681Z,100398.76
2019-05-07T03:40:14.081Z,100393.96
2019-05-07T03:42:23.407Z,100394.59
2019-05-07T03:44:48.002Z,100401.31
2019-05-07T03:47:02.334Z,100402.84
2019-05-07T03:49:07.448Z,100400.78
2019-05-07T03:51:14.719Z,100396.73
2019-05-07T03:53:22.999Z,100406.34
2019-05-07T03:55:33.240Z,100405.41
2019-05-07T03:57:39.835Z,100403.55
2019-05-07T03:59:48.021Z,100409.58
2019-05-07T04:01:55.263Z,100413.66
2019-05-07T04:04:03.761Z,100405.69
2019-05-07T04:06:12.752Z,100408.28
2019-05-07T04:08:23.312Z,100407.05
2019-05-07T04:10:29.084Z,100407.86
2019-05-07T04:12:36.349Z,100405.28
2019-05-07T04:14:43.764Z,100399.87
2019-05-07T04:16:53.608Z,100405.60
2019-05-07T04:19:03.648Z,100405.06
2019-05-07T04:21:09.299Z,100405.63
2019-05-07T04:23:16.716Z,100405.45
2019-05-07T04:25:39.533Z,100405.75
2019-05-07T04:28:03.821Z,100408.66
2019-05-07T04:30:12.923Z,100402.47
2019-05-07T04:32:23.153Z,100405.09
2019-05-07T04:34:58.378Z,100407.62
2019-05-07T04:37:05.680Z,100413.16
2019-05-07T04:39:13.510Z,100414.45
2019-05-07T04:41:23.383Z,100417.89
2019-05-07T04:43:29.968Z,100410.06
2019-05-07T04:45:37.255Z,100405.90
2019-05-07T04:47:47.827Z,100406.92
2019-05-07T04:49:53.880Z,100414.31
2019-05-07T04:52:06.418Z,100416.39
2019-05-07T04:54:13.790Z,100415.71
2019-05-07T04:56:23.953Z,100416.02
2019-05-07T04:58:30.215Z,100419.36
2019-05-07T05:00:37.712Z,100408.67
2019-05-07T05:03:03.795Z,100413.02
2019-05-07T05:05:12.851Z,100411.41
2019-05-07T05:07:22.484Z,100415.10
2019-05-07T05:09:29.475Z,100425.83
2019-05-07T05:11:36.962Z,100419.57
2019-05-07T05:13:45.020Z,100411.95
2019-05-07T05:15:52.821Z,100420.37
2019-05-07T05:18:02.433Z,100422.61
2019-05-07T05:20:10.211Z,100416.89
2019-05-07T05:22:39.193Z,100426.73
2019-05-07T05:24:49.441Z,100430.64
2019-05-07T05:26:56.711Z,100436.69
2019-05-07T05:29:04.012Z,100438.28
2019-05-07T05:31:12.645Z,100440.48
2019-05-07T05:33:20.178Z,100439.80
2019-05-07T05:35:27.535Z,100433.06
2019-05-07T05:37:34.829Z,100440.83
2019-05-07T05:39:42.814Z,100441.03
2019-05-07T05:41:53.444Z,100437.00
2019-05-07T05:44:19.509Z,100439.44
2019-05-07T05:46:28.405Z,100440.47
2019-05-07T05:48:35.784Z,100435.89
2019-05-07T05:50:53.617Z,100440.80
2019-05-07T05:53:09.781Z,100436.40
2019-05-07T05:55:20.055Z,100433.63
2019-05-07T05:57:45.063Z,100438.12
2019-05-07T06:00:12.654Z,100437.73
2019-05-07T06:02:37.685Z,100433.58
2019-05-07T06:04:58.842Z,100434.05
2019-05-07T06:07:14.593Z,100435.80
2019-05-07T06:09:29.310Z,100433.44
2019-05-07T06:11:58.428Z,100436.97
2019-05-07T06:14:33.976Z,100434.63
2019-05-07T06:16:47.153Z,100430.51
2019-05-07T06:19:13.213Z,100437.25
2019-05-07T06:21:32.281Z,100438.62
2019-05-07T06:23:44.827Z,100433.84
2019-05-07T06:25:52.420Z,100435.80
2019-05-07T06:28:01.807Z,100437.64
2019-05-07T06:30:12.102Z,100430.86
2019-05-07T06:32:22.763Z,100433.17
2019-05-07T06:34:29.897Z,100430.37
2019-05-07T06:36:38.852Z,100435.41
2019-05-07T06:38:53.092Z,100432.50
2019-05-07T06:41:19.269Z,100430.56
2019-05-07T06:43:48.102Z,100428.69
2019-05-07T06:45:57.064Z,100432.99
2019-05-07T06:48:04.336Z,100428.98
2019-05-07T06:50:12.557Z,100431.17
2019-05-07T06:52:19.916Z,100432.74
2019-05-07T06:54:27.316Z,100431.95
2019-05-07T06:56:34.601Z,100429.23
2019-05-07T06:58:52.476Z,100432.59
2019-05-07T07:01:18.357Z,100431.22
2019-05-07T07:03:35.696Z,100435.08
2019-05-07T07:06:04.168Z,100430.16
2019-05-07T07:08:23.036Z,100419.22
2019-05-07T07:10:47.770Z,100416.66
2019-05-07T07:12:55.270Z,100415.73
2019-05-07T07:15:02.868Z,100418.50
2019-05-07T07:17:12.770Z,100423.77
2019-05-07T07:19:19.515Z,100423.37
2019-05-07T07:21:26.742Z,100424.38
2019-05-07T07:23:34.371Z,100424.69
2019-05-07T07:25:42.993Z,100417.39
2019-05-07T07:27:52.071Z,100425.44
2019-05-07T07:30:21.836Z,100426.04
2019-05-07T07:32:35.119Z,100420.24
2019-05-07T07:34:47.703Z,100416.23
2019-05-07T07:37:06.032Z,100408.50
2019-05-07T07:39:12.572Z,100421.61
2019-05-07T07:41:34.148Z,100418.65
2019-05-07T07:43:42.015Z,100415.54
2019-05-07T07:45:49.395Z,100413.15
2019-05-07T07:47:56.781Z,100411.31
2019-05-07T07:50:04.168Z,100417.79
2019-05-07T07:52:12.218Z,100417.86
2019-05-07T07:54:19.715Z,100412.63
2019-05-07T07:56:56.131Z,100416.45
2019-05-07T07:59:12.643Z,100407.05
2019-05-07T08:01:42.231Z,100409.51
2019-05-07T08:03:49.698Z,100410.50
2019-05-07T08:05:56.982Z,100411.82
2019-05-07T08:08:04.444Z,100412.53
2019-05-07T08:10:12.988Z,100413.43
2019-05-07T08:12:22.136Z,100407.83
2019-05-07T08:14:29.771Z,100409.29
2019-05-07T08:16:37.344Z,100416.18
2019-05-07T08:18:44.856Z,100419.31
2019-05-07T08:20:52.122Z,100420.89
2019-05-07T08:22:59.373Z,100415.97
2019-05-07T08:25:08.324Z,100418.41
2019-05-07T08:27:15.700Z,100417.80
2019-05-07T08:29:22.974Z,100422.66
2019-05-07T08:31:46.986Z,100422.02
2019-05-07T08:34:03.315Z,100413.05
2019-05-07T08:36:18.474Z,100421.86
2019-05-07T08:38:25.759Z,100423.70
2019-05-07T08:40:33.349Z,100412.56
2019-05-07T08:42:41.892Z,100417.11
2019-05-07T08:44:59.992Z,100417.77
2019-05-07T08:47:29.253Z,100420.42
2019-05-07T08:49:40.097Z,100423.22
2019-05-07T08:51:51.935Z,100416.53
2019-05-07T08:54:05.835Z,100412.19
2019-05-07T08:56:13.234Z,100417.86
2019-05-07T08:58:22.397Z,100411.99
2019-05-07T09:00:32.443Z,100409.69
2019-05-07T09:02:39.616Z,100420.20
2019-05-07T09:04:46.956Z,100422.20
2019-05-07T09:06:54.684Z,100416.41
2019-05-07T09:09:02.963Z,100420.84
2019-05-07T09:11:10.668Z,100420.13
2019-05-07T09:13:18.289Z,100430.14
2019-05-07T09:15:25.535Z,100425.81
2019-05-07T09:17:32.746Z,100419.75
2019-05-07T09:19:48.365Z,100408.70
2019-05-07T09:21:49.207Z,100409.36
2019-05-07T09:23:56.645Z,100412.69
2019-05-07T09:26:04.030Z,100409.78
2019-05-07T09:28:11.906Z,100424.14
2019-05-07T09:30:32.525Z,100423.33
2019-05-07T09:33:05.500Z,100427.24
2019-05-07T09:35:16.268Z,100433.53
2019-05-07T09:37:26.590Z,100427.65
2019-05-07T09:39:34.071Z,100415.44
2019-05-07T09:41:41.805Z,100414.83
2019-05-07T09:43:49.360Z,100417.04
2019-05-07T09:45:57.239Z,100415.59
2019-05-07T09:48:05.246Z,100420.28
2019-05-07T09:50:12.955Z,100427.13
2019-05-07T09:52:22.667Z,100430.78
2019-05-07T09:54:29.234Z,100423.94
2019-05-07T09:56:36.560Z,100429.38
2019-05-07T09:58:43.984Z,100427.28
2019-05-07T10:00:51.252Z,100426.88
2019-05-07T10:02:58.810Z,100419.23
2019-05-07T10:05:06.821Z,100422.98
2019-05-07T10:07:14.244Z,100423.91
2019-05-07T10:09:22.318Z,100418.39
2019-05-07T10:11:36.411Z,100420.73
2019-05-07T10:13:48.632Z,100430.10
2019-05-07T10:15:56.190Z,100438.34
2019-05-07T10:18:14.943Z,100426.89
2019-05-07T10:20:24.329Z,100425.85
2019-05-07T10:22:32.259Z,100436.85
2019-05-07T10:24:41.782Z,100436.19
2019-05-07T10:26:49.180Z,100438.28
2019-05-07T10:28:57.327Z,100448.39
2019-05-07T10:31:04.729Z,100443.47
2019-05-07T10:33:12.450Z,100441.20
2019-05-07T10:35:20.122Z,100436.70
2019-05-07T10:37:27.412Z,100431.55
2019-05-07T10:39:34.918Z,100440.13
2019-05-07T10:41:42.567Z,100439.28
2019-05-07T10:43:51.905Z,100439.25
2019-05-07T10:46:18.040Z,100439.00
2019-05-07T10:48:42.702Z,100448.20
2019-05-07T10:50:51.742Z,100443.58
2019-05-07T10:52:59.186Z,100431.25
2019-05-07T10:55:06.878Z,100442.86
2019-05-07T10:57:14.046Z,100449.13
2019-05-07T10:59:22.520Z,100435.67
2019-05-07T11:01:38.918Z,100431.69
2019-05-07T11:03:46.843Z,100436.95
2019-05-07T11:05:54.650Z,100444.23
2019-05-07T11:08:02.459Z,100435.76
2019-05-07T11:10:12.207Z,100441.33
2019-05-07T11:12:19.219Z,100446.72
2019-05-07T11:14:26.429Z,100444.37
2019-05-07T11:16:38.705Z,100446.06
2019-05-07T11:18:51.799Z,100450.61
2019-05-07T11:20:59.200Z,100451.21
2019-05-07T11:23:06.645Z,100454.25
2019-05-07T11:25:14.273Z,100460.31
2019-05-07T11:27:22.510Z,100455.91
2019-05-07T11:29:30.023Z,100447.68
2019-05-07T11:31:37.372Z,100454.02
2019-05-07T11:33:44.693Z,100459.52
2019-05-07T11:35:52.764Z,100460.70
2019-05-07T11:38:03.782Z,100457.47
2019-05-07T11:40:13.077Z,100459.22
2019-05-07T11:42:45.064Z,100454.28
2019-05-07T11:44:54.938Z,100457.31
2019-05-07T11:47:18.769Z,100471.70
2019-05-07T11:49:32.725Z,100472.66
2019-05-07T11:51:45.253Z,100466.61
2019-05-07T11:54:12.742Z,100471.34
2019-05-07T11:56:21.980Z,100462.45
2019-05-07T11:58:29.755Z,100463.89
2019-05-07T12:01:12.513Z,100457.48
2019-05-07T12:03:22.139Z,100456.69
2019-05-07T12:05:29.608Z,100461.27
2019-05-07T12:07:36.986Z,100463.08
2019-05-07T12:09:44.503Z,100468.00
2019-05-07T12:11:52.113Z,100471.73
2019-05-07T12:13:59.554Z,100475.88
2019-05-07T12:16:07.106Z,100468.69
2019-05-07T12:18:14.493Z,100475.80
2019-05-07T12:20:22.422Z,100469.15
2019-05-07T12:22:47.842Z,100460.81
2019-05-07T12:24:55.198Z,100456.92
2019-05-07T12:27:02.914Z,100458.69
2019-05-07T12:29:11.833Z,100457.41
2019-05-07T12:31:38.170Z,100451.27
2019-05-07T12:34:05.235Z,100461.29
2019-05-07T12:36:13.481Z,100459.98
2019-05-07T12:38:21.956Z,100470.41
2019-05-07T12:40:32.507Z,100466.06
2019-05-07T12:42:42.422Z,100460.75
2019-05-07T12:44:49.259Z,100468.63
2019-05-07T12:46:56.522Z,100461.86
2019-05-07T12:49:04.267Z,100452.93
2019-05-07T12:51:12.577Z,100454.04
2019-05-07T12:53:42.461Z,100454.83
2019-05-07T12:55:56.311Z,100445.39
2019-05-07T12:58:03.753Z,100452.61
2019-05-07T13:00:32.331Z,100448.77
2019-05-07T13:02:46.453Z,100448.56
2019-05-07T13:04:53.824Z,100450.66
2019-05-07T13:07:08.025Z,100448.31
2019-05-07T13:09:15.882Z,100449.17
2019-05-07T13:11:23.254Z,100443.87
2019-05-07T13:13:32.040Z,100452.59
2019-05-07T13:15:39.630Z,100457.84
2019-05-07T13:17:47.062Z,100458.64
2019-05-07T13:19:54.555Z,100453.11
2019-05-07T13:22:05.203Z,100462.95
2019-05-07T13:24:18.375Z,100462.20
2019-05-07T13:26:24.916Z,100459.55
2019-05-07T13:28:32.398Z,100458.77
2019-05-07T13:30:43.588Z,100458.02
2019-05-07T13:32:52.606Z,100455.88
2019-05-07T13:35:02.787Z,100456.55
2019-05-07T13:37:15.691Z,100457.48
2019-05-07T13:39:48.205Z,100453.68
2019-05-07T13:42:04.474Z,100458.61
2019-05-07T13:44:40.229Z,100461.02
2019-05-07T13:46:49.684Z,100469.53
2019-05-07T13:48:57.290Z,100473.98
2019-05-07T13:51:05.723Z,100478.89
2019-05-07T13:53:13.581Z,100471.63
2019-05-07T13:55:21.853Z,100474.45
2019-05-07T13:57:29.473Z,100476.92
2019-05-07T13:59:37.377Z,100476.81
2019-05-07T14:01:55.476Z,100471.31
2019-05-07T14:04:04.101Z,100475.31
2019-05-07T14:06:13.245Z,100473.90
2019-05-07T14:08:23.048Z,100469.83
2019-05-07T14:10:33.552Z,100473.61
2019-05-07T14:12:39.771Z,100471.34
2019-05-07T14:14:47.693Z,100470.95
2019-05-07T14:16:55.110Z,100467.91
2019-05-07T14:19:04.212Z,100471.82
2019-05-07T14:21:13.030Z,100465.48
2019-05-07T14:23:21.760Z,100464.16
2019-05-07T14:25:29.148Z,100470.30
2019-05-07T14:27:36.591Z,100461.48
2019-05-07T14:29:44.057Z,100460.85
2019-05-07T14:31:58.607Z,100459.25
2019-05-07T14:34:18.925Z,100453.58
2019-05-07T14:36:42.633Z,100455.08
2019-05-07T14:38:52.009Z,100453.95
2019-05-07T14:41:00.137Z,100454.41
2019-05-07T14:43:13.231Z,100459.91
2019-05-07T14:45:23.554Z,100461.14
2019-05-07T14:47:30.212Z,100456.77
2019-05-07T14:49:37.686Z,100454.69
2019-05-07T14:51:45.210Z,100456.97
2019-05-07T14:53:52.785Z,100454.71
2019-05-07T14:56:00.308Z,100461.51
2019-05-07T14:58:07.668Z,100462.83
2019-05-07T15:00:16.045Z,100461.89
2019-05-07T15:02:23.939Z,100465.59
2019-05-07T15:04:31.471Z,100461.35
2019-05-07T15:06:39.316Z,100463.14
2019-05-07T15:08:47.258Z,100457.16
2019-05-07T15:10:55.052Z,100457.36
2019-05-07T15:13:02.824Z,100448.23
2019-05-07T15:15:12.648Z,100443.66
2019-05-07T15:17:39.333Z,100454.07
2019-05-07T15:19:47.034Z,100451.52
2019-05-07T15:21:58.423Z,100452.51
2019-05-07T15:24:05.998Z,100458.20
2019-05-07T15:26:13.535Z,100457.72
2019-05-07T15:28:22.845Z,100455.55
2019-05-07T15:30:37.655Z,100453.50
2019-05-07T15:32:45.022Z,100465.27
2019-05-07T15:34:52.760Z,100469.99
2019-05-07T15:37:01.647Z,100462.61
2019-05-07T15:39:09.380Z,100466.69
2019-05-07T15:41:17.036Z,100467.16
2019-05-07T15:43:24.397Z,100461.14
2019-05-07T15:45:32.195Z,100468.14
2019-05-07T15:47:44.137Z,100465.39
2019-05-07T15:49:51.474Z,100466.17
2019-05-07T15:52:01.819Z,100462.84
2019-05-07T15:54:09.774Z,100464.00
2019-05-07T15:56:17.611Z,100462.48
2019-05-07T15:58:24.994Z,100467.30
2019-05-07T16:00:33.868Z,100468.34
2019-05-07T16:02:45.327Z,100463.41
2019-05-07T16:04:53.580Z,100464.07
2019-05-07T16:07:05.146Z,100465.12
2019-05-07T16:09:12.863Z,100468.92
2019-05-07T16:11:23.043Z,100460.02
2019-05-07T16:13:32.768Z,100466.83
2019-05-07T16:15:42.327Z,100473.25
2019-05-07T16:17:58.119Z,100465.02
2019-05-07T16:20:06.929Z,100466.42
2019-05-07T16:22:19.512Z,100470.05
2019-05-07T16:24:26.851Z,100456.80
2019-05-07T16:26:34.286Z,100468.26
2019-05-07T16:28:41.775Z,100468.52
2019-05-07T16:30:49.217Z,100474.02
2019-05-07T16:32:56.698Z,100472.13
2019-05-07T16:35:05.685Z,100466.73
2019-05-07T16:37:14.017Z,100470.33
2019-05-07T16:39:22.156Z,100471.74
2019-05-07T16:41:31.640Z,100476.47
2019-05-07T16:43:39.252Z,100474.36
2019-05-07T16:45:47.051Z,100479.85
2019-05-07T16:47:55.022Z,100471.55
2019-05-07T16:50:04.202Z,100481.20
2019-05-07T16:52:12.059Z,100478.92
2019-05-07T16:54:19.523Z,100482.53
2019-05-07T16:56:27.183Z,100483.25
2019-05-07T16:58:42.762Z,100483.65
2019-05-07T17:00:53.211Z,100483.45
2019-05-07T17:03:02.228Z,100491.67
2019-05-07T17:05:13.999Z,100489.11
2019-05-07T17:07:22.069Z,100491.56
2019-05-07T17:09:32.226Z,100489.48
2019-05-07T17:11:39.947Z,100487.59
2019-05-07T17:13:47.685Z,100493.52
2019-05-07T17:15:56.481Z,100493.80
2019-05-07T17:18:03.937Z,100494.36
2019-05-07T17:20:12.729Z,100500.28
2019-05-07T17:22:22.600Z,100498.14
2019-05-07T17:24:29.335Z,100510.86
2019-05-07T17:26:36.847Z,100506.48
2019-05-07T17:28:44.639Z,100507.78
2019-05-07T17:30:52.526Z,100510.77
2019-05-07T17:33:01.943Z,100517.56
2019-05-07T17:35:09.267Z,100506.72
2019-05-07T17:37:16.586Z,100515.72
2019-05-07T17:39:24.205Z,100512.70
2019-05-07T17:41:32.387Z,100519.09
2019-05-07T17:43:40.387Z,100521.40
2019-05-07T17:45:48.429Z,100512.27
2019-05-07T17:47:56.224Z,100517.37
2019-05-07T17:50:05.777Z,100521.41
2019-05-07T17:52:13.091Z,100525.91
2019-05-07T17:54:22.462Z,100523.19
2019-05-07T17:56:31.916Z,100527.59
2019-05-07T17:58:38.999Z,100521.23
2019-05-07T18:00:48.806Z,100531.58
2019-05-07T18:03:13.802Z,100532.57
2019-05-07T18:05:21.501Z,100541.20
2019-05-07T18:07:28.988Z,100543.06
2019-05-07T18:09:36.598Z,100545.39
2019-05-07T18:11:44.158Z,100543.89
2019-05-07T18:13:52.691Z,100554.91
2019-05-07T18:16:07.007Z,100554.80
2019-05-07T18:18:15.612Z,100560.70
2019-05-07T18:20:23.212Z,100556.44
2019-05-07T18:22:32.546Z,100560.93
2019-05-07T18:24:41.928Z,100561.77
2019-05-07T18:26:49.570Z,100564.33
2019-05-07T18:28:57.002Z,100565.94
2019-05-07T18:31:04.528Z,100571.24
2019-05-07T18:33:30.088Z,100571.16
2019-05-07T18:35:37.557Z,100574.70
2019-05-07T18:37:54.008Z,100584.61
2019-05-07T18:40:02.545Z,100574.78
2019-05-07T18:42:10.290Z,100588.76
2019-05-07T18:44:17.850Z,100589.56
2019-05-07T18:46:25.385Z,100585.08
2019-05-07T18:48:32.760Z,100585.66
2019-05-07T18:50:41.945Z,100586.44
2019-05-07T18:52:49.574Z,100584.73
2019-05-07T18:54:57.366Z,100586.72
2019-05-07T18:57:05.341Z,100594.56
2019-05-07T18:59:13.904Z,100595.14
2019-05-07T19:01:23.739Z,100598.19
2019-05-07T19:03:32.472Z,100591.69
2019-05-07T19:05:42.298Z,100596.63
2019-05-07T19:08:02.388Z,100595.78
2019-05-07T19:09:59.088Z,100593.02
2019-05-07T19:12:08.037Z,100590.78
2019-05-07T19:14:15.472Z,100595.38
2019-05-07T19:16:23.165Z,100596.70
2019-05-07T19:18:32.209Z,100594.38
2019-05-07T19:20:42.000Z,100603.44
2019-05-07T19:22:51.724Z,100596.13
2019-05-07T19:24:59.742Z,100597.03
2019-05-07T19:27:07.898Z,100599.66
2019-05-07T19:29:15.805Z,100602.52
2019-05-07T19:31:23.415Z,100602.66
2019-05-07T19:33:32.503Z,100596.23
2019-05-07T19:35:41.884Z,100607.88
2019-05-07T19:37:49.486Z,100604.17
2019-05-07T19:39:56.954Z,100602.20
2019-05-07T19:42:04.484Z,100603.64
2019-05-07T19:44:12.773Z,100605.23
2019-05-07T19:46:22.679Z,100604.95
2019-05-07T19:48:32.152Z,100609.28
2019-05-07T19:50:39.074Z,100614.86
2019-05-07T19:52:46.551Z,100608.64
2019-05-07T19:55:00.903Z,100611.14
2019-05-07T19:57:04.197Z,100603.64
2019-05-07T19:59:12.613Z,100613.04
2019-05-07T20:01:24.680Z,100617.31
2019-05-07T20:03:32.420Z,100618.73
2019-05-07T20:05:41.945Z,100615.66
2019-05-07T20:07:53.351Z,100626.64
2019-05-07T20:09:59.204Z,100621.39
2019-05-07T20:12:08.110Z,100625.23
2019-05-07T20:14:15.895Z,100628.74
2019-05-07T20:16:23.854Z,100622.28
2019-05-07T20:18:33.092Z,100626.09
2019-05-07T20:20:42.403Z,100633.04
2019-05-07T20:22:51.747Z,100636.23
2019-05-07T20:25:12.378Z,100637.55
2019-05-07T20:27:08.517Z,100640.25
2019-05-07T20:29:16.053Z,100636.47
2019-05-07T20:31:23.546Z,100637.89
2019-05-07T20:33:33.072Z,100634.46
2019-05-07T20:35:41.848Z,100630.57
2019-05-07T20:37:49.203Z,100637.04
2019-05-07T20:39:56.699Z,100637.97
2019-05-07T20:42:04.305Z,100639.20
2019-05-07T20:44:12.127Z,100644.66
2019-05-07T20:46:20.065Z,100649.30
2019-05-07T20:48:28.019Z,100654.55
2019-05-07T20:50:35.466Z,100651.00
2019-05-07T20:52:43.315Z,100654.69
2019-05-07T20:55:06.792Z,100657.42
2019-05-07T20:57:23.168Z,100659.61
2019-05-07T20:59:32.795Z,100656.70
2019-05-07T21:01:41.948Z,100652.56
2019-05-07T21:03:52.576Z,100650.69
2019-05-07T21:05:59.364Z,100649.88
2019-05-07T21:08:06.654Z,100653.63
2019-05-07T21:10:14.324Z,100659.75
2019-05-07T21:12:22.467Z,100654.96
2019-05-07T21:14:32.271Z,100666.48
2019-05-07T21:16:39.270Z,100665.86
2019-05-07T21:18:46.689Z,100663.52
2019-05-07T21:20:54.140Z,100667.47
2019-05-07T21:23:02.706Z,100662.62
2019-05-07T21:25:11.988Z,100668.61
2019-05-07T21:27:19.581Z,100666.26
2019-05-07T21:29:26.987Z,100679.44
2019-05-07T21:31:34.415Z,100671.23
2019-05-07T21:33:42.890Z,100672.72
2019-05-07T21:35:52.278Z,100671.19
2019-05-07T21:38:00.061Z,100678.88
2019-05-07T21:40:07.534Z,100677.05
2019-05-07T21:42:15.785Z,100677.41
2019-05-07T21:44:25.336Z,100683.74
2019-05-07T21:46:32.970Z,100682.43
2019-05-07T21:48:40.565Z,100686.53
2019-05-07T21:50:47.926Z,100687.17
2019-05-07T21:53:02.707Z,100684.80
2019-05-07T21:55:34.592Z,100686.55
2019-05-07T21:57:48.876Z,100688.33
2019-05-07T22:00:14.224Z,100681.76
2019-05-07T22:02:24.729Z,100684.41
2019-05-07T22:04:32.176Z,100689.58
2019-05-07T22:06:39.645Z,100688.09
2019-05-07T22:08:47.084Z,100685.42
2019-05-07T22:10:54.454Z,100689.45
2019-05-07T22:13:03.256Z,100688.58
2019-05-07T22:15:12.991Z,100690.84
2019-05-07T22:17:21.907Z,100686.05
2019-05-07T22:19:33.540Z,100692.37
2019-05-07T22:21:38.756Z,100693.91
2019-05-07T22:23:46.373Z,100692.84
2019-05-07T22:25:53.974Z,100687.36
2019-05-07T22:28:01.906Z,100686.51
2019-05-07T22:30:13.194Z,100686.88
2019-05-07T22:32:37.127Z,100690.42
2019-05-07T22:34:58.175Z,100690.79
2019-05-07T22:37:05.655Z,100692.91
2019-05-07T22:39:13.076Z,100689.30
2019-05-07T22:41:22.421Z,100692.91
2019-05-07T22:43:31.706Z,100693.30
2019-05-07T22:45:38.535Z,100697.81
2019-05-07T22:47:45.948Z,100702.21
2019-05-07T22:49:54.012Z,100698.19
2019-05-07T22:52:02.327Z,100702.31
2019-05-07T22:54:11.862Z,100699.25
2019-05-07T22:56:31.977Z,100699.45
2019-05-07T22:58:42.169Z,100704.86
2019-05-07T23:00:57.456Z,100700.50
2019-05-07T23:03:05.143Z,100702.25
2019-05-07T23:05:12.863Z,100702.33
2019-05-07T23:07:22.320Z,100700.59
2019-05-07T23:09:29.300Z,100697.86
2019-05-07T23:11:36.722Z,100700.55
2019-05-07T23:13:44.112Z,100699.05
2019-05-07T23:15:53.726Z,100710.67
2019-05-07T23:18:04.181Z,100706.95
2019-05-07T23:20:10.486Z,100704.91
2019-05-07T23:22:17.846Z,100702.32
2019-05-07T23:24:25.428Z,100707.65
2019-05-07T23:26:46.579Z,100696.20
2019-05-07T23:28:42.004Z,100707.24
2019-05-07T23:30:51.695Z,100705.24
2019-05-07T23:32:58.295Z,100703.66
2019-05-07T23:35:05.702Z,100704.16
2019-05-07T23:37:13.004Z,100705.33
2019-05-07T23:39:22.111Z,100706.68
2019-05-07T23:41:35.490Z,100706.31
2019-05-07T23:43:42.810Z,100708.95
2019-05-07T23:45:50.094Z,100705.77
2019-05-07T23:47:57.420Z,100706.95
2019-05-07T23:50:04.887Z,100701.19
2019-05-07T23:52:12.928Z,100704.00
2019-05-07T23:54:22.711Z,100709.84
2019-05-07T23:56:29.231Z,100707.71
2019-05-07T23:58:36.529Z,100708.11
